Brandon, SD

2:01 PM CST on March 03, 2015 (GMT -0600)
East Sioux Falls | Change Station
CLOSE
Current Station
Personal Weather Station
Location: Sioux Falls, SD
Elevation: 1473 ft
Nearby Weather Stations
Active Advisory: Winter Weather Advisory Active Notice: Public Information Statement

Elev 1473 ft 43.55 °N, 96.66 °W | Updated 44 seconds ago

Overcast
Overcast
19.6 °F
Feels Like 10 °F
N
8.3
Wind Variable Wind from NNW
Gusts 9.8 mph

Today
High -- | Low -- °F
--% Chance of Precip.
Yesterday
High -- | Low -- °F
Precip. -- in
6:59 AM 6:17 PM
Waxing Gibbous, 97% visible
Pressure 29.90 in
Visibility 4.0 miles
Clouds Mostly Cloudy 1600 ft
Windchill 10 °F
Dew Point 6 °F
Humidity 55%
Rainfall 0.00 in
Snow Depth Not available.
UV 2.0 out of 12
Pollen .40 out of 12
Air Quality Not available.
Flu Activity Not available.
SPECI KFSD 031912Z 32023G29KT 4SM -SN BLSN BKN016 M07/M12 A2990 RMK AO2 PK WND 32032/1858 P0000 T10721117

More Conditions Fewer Conditions

Pressure 29.90 in
Visibility 4.0 miles
Clouds Mostly Cloudy 1600 ft
Windchill 10 °F
Dew Point 6 °F
Humidity 55%
Rainfall 0.00 in
Snow Depth Not available.
UV 2.0 out of 12
Pollen .40 out of 12
Air Quality Not available.
Flu Activity Not available.
SPECI KFSD 031912Z 32023G29KT 4SM -SN BLSN BKN016 M07/M12 A2990 RMK AO2 PK WND 32032/1858 P0000 T10721117

More Conditions Fewer Conditions

10-Day Weather Forecast

Almanac

Astronomy

Mar. 03, 2015 Rise Set
Actual Time
Civil Twilight
Nautical Twilight
Astronomical Twilight
Moon
Length of Visible Light
Length of Day
Tomorrow will be .
, % of the Moon is Illuminated

Today's Extremes

State Highs State Lows

Community

WunderPhotos

Upload Photos

1,802,226 photos uploaded!

WunderBlogs® & News

Nearby

Air Quality

  Air Quality AQ Index Pollutant
Not available.

Snow Depth

Station Depth Elevation

Earthquake Activity

City Distance Mag. Time & Date
Minimum magnitude displayed is 2.5.

Coastal Water Temperatures

Place Temperature

Nearby Weather Stations

Winter Weather Advisory
Statement as of 11:06 AM CST on March 03, 2015

... Winter Weather Advisory remains in effect until 5 PM CST this
afternoon...

* timing... gradually improving conditions are expected through the
afternoon.

* Accumulations... additional accumulations of a tenth of an inch
or less are expected.

* Wind and visibility... north to northwest winds of 30 to 40 mph
will be common... with some gusts around 45 mph possible in the
late morning and early afternoon. The combination of strong
winds and falling snow will occasionally reduce visibility to
a mile or less... especially in open areas. Drifting snow will
also impact travel through the afternoon.

* Wind chill values... wind chill values will fall to zero to 10
below zero by late afternoon.

Precautionary/preparedness actions...

A Winter Weather Advisory for snow and blowing snow means that
visibilities will be limited due to a combination of falling and
blowing snow. Use caution when traveling... especially in open
areas.